sensor_id;sensor_type;location;lat;lon;timestamp;P1;durP1;ratioP1;P2;durP2;ratioP2
15899;SDS011;8048;50.644;6.184;2024-02-21T00:00:14;8.60;;;6.07;;
15899;SDS011;8048;50.644;6.184;2024-02-21T00:02:40;10.90;;;5.77;;
15899;SDS011;8048;50.644;6.184;2024-02-21T00:05:06;10.00;;;7.30;;
15899;SDS011;8048;50.644;6.184;2024-02-21T00:07:32;8.77;;;6.93;;
15899;SDS011;8048;50.644;6.184;2024-02-21T00:09:58;9.30;;;6.07;;
15899;SDS011;8048;50.644;6.184;2024-02-21T00:12:23;11.97;;;6.30;;
15899;SDS011;8048;50.644;6.184;2024-02-21T00:14:49;14.87;;;8.80;;
15899;SDS011;8048;50.644;6.184;2024-02-21T00:17:14;11.43;;;5.50;;
15899;SDS011;8048;50.644;6.184;2024-02-21T00:19:40;7.97;;;5.23;;
15899;SDS011;8048;50.644;6.184;2024-02-21T00:22:06;14.90;;;6.63;;
15899;SDS011;8048;50.644;6.184;2024-02-21T00:24:31;11.10;;;6.30;;
15899;SDS011;8048;50.644;6.184;2024-02-21T00:26:57;9.57;;;6.90;;
15899;SDS011;8048;50.644;6.184;2024-02-21T00:29:22;9.47;;;6.40;;
15899;SDS011;8048;50.644;6.184;2024-02-21T00:31:49;8.80;;;6.93;;
15899;SDS011;8048;50.644;6.184;2024-02-21T00:34:14;14.33;;;7.00;;
15899;SDS011;8048;50.644;6.184;2024-02-21T00:36:40;7.23;;;6.00;;
15899;SDS011;8048;50.644;6.184;2024-02-21T00:39:05;9.50;;;5.70;;
15899;SDS011;8048;50.644;6.184;2024-02-21T00:41:31;8.57;;;5.57;;
15899;SDS011;8048;50.644;6.184;2024-02-21T00:43:57;11.20;;;6.10;;
15899;SDS011;8048;50.644;6.184;2024-02-21T00:46:22;21.97;;;8.63;;
15899;SDS011;8048;50.644;6.184;2024-02-21T00:48:48;9.20;;;6.37;;
15899;SDS011;8048;50.644;6.184;2024-02-21T00:51:14;12.80;;;6.33;;
15899;SDS011;8048;50.644;6.184;2024-02-21T00:53:40;11.30;;;7.40;;
15899;SDS011;8048;50.644;6.184;2024-02-21T00:56:07;10.93;;;6.83;;
15899;SDS011;8048;50.644;6.184;2024-02-21T00:58:32;9.37;;;6.13;;
15899;SDS011;8048;50.644;6.184;2024-02-21T01:00:58;14.13;;;6.40;;
15899;SDS011;8048;50.644;6.184;2024-02-21T01:03:23;12.93;;;6.47;;
15899;SDS011;8048;50.644;6.184;2024-02-21T01:05:49;7.37;;;5.90;;
15899;SDS011;8048;50.644;6.184;2024-02-21T01:08:14;12.53;;;5.70;;
15899;SDS011;8048;50.644;6.184;2024-02-21T01:10:40;8.17;;;6.57;;
15899;SDS011;8048;50.644;6.184;2024-02-21T01:13:06;10.83;;;5.40;;
15899;SDS011;8048;50.644;6.184;2024-02-21T01:15:32;15.23;;;6.77;;
15899;SDS011;8048;50.644;6.184;2024-02-21T01:17:58;10.50;;;5.87;;
15899;SDS011;8048;50.644;6.184;2024-02-21T01:20:23;14.23;;;6.73;;
15899;SDS011;8048;50.644;6.184;2024-02-21T01:22:49;15.17;;;6.80;;
15899;SDS011;8048;50.644;6.184;2024-02-21T01:25:15;7.60;;;6.20;;
15899;SDS011;8048;50.644;6.184;2024-02-21T01:27:40;12.40;;;6.37;;
15899;SDS011;8048;50.644;6.184;2024-02-21T01:30:06;9.20;;;4.93;;
15899;SDS011;8048;50.644;6.184;2024-02-21T01:32:32;12.63;;;5.93;;
15899;SDS011;8048;50.644;6.184;2024-02-21T01:34:58;11.53;;;5.80;;
15899;SDS011;8048;50.644;6.184;2024-02-21T01:37:24;11.90;;;5.60;;
15899;SDS011;8048;50.644;6.184;2024-02-21T01:39:50;10.90;;;6.43;;
15899;SDS011;8048;50.644;6.184;2024-02-21T01:42:15;10.43;;;5.80;;
15899;SDS011;8048;50.644;6.184;2024-02-21T01:44:41;10.47;;;6.10;;
15899;SDS011;8048;50.644;6.184;2024-02-21T01:47:07;7.27;;;5.40;;
15899;SDS011;8048;50.644;6.184;2024-02-21T01:49:33;8.17;;;6.03;;
15899;SDS011;8048;50.644;6.184;2024-02-21T01:51:58;6.97;;;4.90;;
15899;SDS011;8048;50.644;6.184;2024-02-21T01:54:25;7.10;;;5.40;;
15899;SDS011;8048;50.644;6.184;2024-02-21T01:56:53;12.47;;;7.13;;
15899;SDS011;8048;50.644;6.184;2024-02-21T01:59:19;7.63;;;5.20;;
15899;SDS011;8048;50.644;6.184;2024-02-21T02:01:46;7.80;;;5.50;;
15899;SDS011;8048;50.644;6.184;2024-02-21T02:04:12;11.33;;;7.23;;
15899;SDS011;8048;50.644;6.184;2024-02-21T02:06:39;11.10;;;4.10;;
15899;SDS011;8048;50.644;6.184;2024-02-21T02:09:06;13.07;;;6.20;;
15899;SDS011;8048;50.644;6.184;2024-02-21T02:11:32;5.93;;;4.90;;
15899;SDS011;8048;50.644;6.184;2024-02-21T02:13:58;7.23;;;5.07;;
15899;SDS011;8048;50.644;6.184;2024-02-21T02:16:24;6.50;;;4.60;;
15899;SDS011;8048;50.644;6.184;2024-02-21T02:18:49;10.10;;;4.50;;
15899;SDS011;8048;50.644;6.184;2024-02-21T02:21:21;7.17;;;5.10;;
15899;SDS011;8048;50.644;6.184;2024-02-21T02:23:52;10.30;;;5.03;;
15899;SDS011;8048;50.644;6.184;2024-02-21T02:26:17;6.60;;;5.90;;
15899;SDS011;8048;50.644;6.184;2024-02-21T02:28:49;7.50;;;4.50;;
15899;SDS011;8048;50.644;6.184;2024-02-21T02:31:15;12.30;;;6.03;;
15899;SDS011;8048;50.644;6.184;2024-02-21T02:33:42;12.40;;;5.40;;
15899;SDS011;8048;50.644;6.184;2024-02-21T02:36:09;7.50;;;5.40;;
15899;SDS011;8048;50.644;6.184;2024-02-21T02:38:35;10.43;;;5.77;;
15899;SDS011;8048;50.644;6.184;2024-02-21T02:41:00;7.07;;;4.30;;
15899;SDS011;8048;50.644;6.184;2024-02-21T02:43:26;7.53;;;4.87;;
15899;SDS011;8048;50.644;6.184;2024-02-21T02:45:51;6.70;;;5.40;;
15899;SDS011;8048;50.644;6.184;2024-02-21T02:48:17;8.33;;;6.53;;
15899;SDS011;8048;50.644;6.184;2024-02-21T02:50:44;10.33;;;6.27;;
15899;SDS011;8048;50.644;6.184;2024-02-21T02:53:10;6.80;;;5.47;;
15899;SDS011;8048;50.644;6.184;2024-02-21T02:55:36;7.80;;;5.93;;
15899;SDS011;8048;50.644;6.184;2024-02-21T02:58:02;8.13;;;5.77;;
15899;SDS011;8048;50.644;6.184;2024-02-21T03:00:27;9.83;;;5.50;;
15899;SDS011;8048;50.644;6.184;2024-02-21T03:02:53;8.33;;;5.50;;
15899;SDS011;8048;50.644;6.184;2024-02-21T03:05:19;9.73;;;5.73;;
15899;SDS011;8048;50.644;6.184;2024-02-21T03:07:46;6.67;;;5.33;;
15899;SDS011;8048;50.644;6.184;2024-02-21T03:10:12;12.37;;;5.80;;
15899;SDS011;8048;50.644;6.184;2024-02-21T03:12:38;9.07;;;5.80;;
15899;SDS011;8048;50.644;6.184;2024-02-21T03:15:04;7.47;;;5.73;;
15899;SDS011;8048;50.644;6.184;2024-02-21T03:17:30;5.17;;;4.70;;
15899;SDS011;8048;50.644;6.184;2024-02-21T03:19:57;9.07;;;7.50;;
15899;SDS011;8048;50.644;6.184;2024-02-21T03:22:24;9.60;;;5.80;;
15899;SDS011;8048;50.644;6.184;2024-02-21T03:24:50;10.23;;;5.67;;
15899;SDS011;8048;50.644;6.184;2024-02-21T03:27:16;10.17;;;4.57;;
15899;SDS011;8048;50.644;6.184;2024-02-21T03:29:42;7.93;;;4.63;;
15899;SDS011;8048;50.644;6.184;2024-02-21T03:32:07;7.13;;;4.40;;
15899;SDS011;8048;50.644;6.184;2024-02-21T03:34:33;8.17;;;4.37;;
15899;SDS011;8048;50.644;6.184;2024-02-21T03:36:59;8.10;;;5.27;;
15899;SDS011;8048;50.644;6.184;2024-02-21T03:39:25;10.40;;;5.30;;
15899;SDS011;8048;50.644;6.184;2024-02-21T03:41:50;6.40;;;4.40;;
15899;SDS011;8048;50.644;6.184;2024-02-21T03:44:16;6.30;;;4.00;;
15899;SDS011;8048;50.644;6.184;2024-02-21T03:46:42;7.10;;;4.57;;
15899;SDS011;8048;50.644;6.184;2024-02-21T03:49:08;12.97;;;5.17;;
15899;SDS011;8048;50.644;6.184;2024-02-21T03:51:33;8.70;;;4.43;;
15899;SDS011;8048;50.644;6.184;2024-02-21T03:53:59;7.13;;;4.40;;
15899;SDS011;8048;50.644;6.184;2024-02-21T03:56:24;7.20;;;4.50;;
15899;SDS011;8048;50.644;6.184;2024-02-21T03:58:50;10.00;;;5.03;;
15899;SDS011;8048;50.644;6.184;2024-02-21T04:01:16;7.60;;;4.60;;
15899;SDS011;8048;50.644;6.184;2024-02-21T04:03:42;6.40;;;4.50;;
15899;SDS011;8048;50.644;6.184;2024-02-21T04:06:09;5.90;;;4.80;;
15899;SDS011;8048;50.644;6.184;2024-02-21T04:08:34;8.40;;;4.60;;
15899;SDS011;8048;50.644;6.184;2024-02-21T04:11:00;6.63;;;4.60;;
15899;SDS011;8048;50.644;6.184;2024-02-21T04:13:26;6.53;;;4.10;;
15899;SDS011;8048;50.644;6.184;2024-02-21T04:15:51;6.40;;;4.47;;
15899;SDS011;8048;50.644;6.184;2024-02-21T04:18:17;5.40;;;4.17;;
15899;SDS011;8048;50.644;6.184;2024-02-21T04:20:43;7.27;;;4.47;;
15899;SDS011;8048;50.644;6.184;2024-02-21T04:23:08;6.07;;;3.60;;
15899;SDS011;8048;50.644;6.184;2024-02-21T04:25:34;4.90;;;2.93;;
15899;SDS011;8048;50.644;6.184;2024-02-21T04:27:59;6.90;;;4.40;;
15899;SDS011;8048;50.644;6.184;2024-02-21T04:30:25;6.10;;;4.00;;
15899;SDS011;8048;50.644;6.184;2024-02-21T04:32:51;8.20;;;5.47;;
15899;SDS011;8048;50.644;6.184;2024-02-21T04:35:16;7.97;;;4.63;;
15899;SDS011;8048;50.644;6.184;2024-02-21T04:37:42;9.20;;;4.47;;
15899;SDS011;8048;50.644;6.184;2024-02-21T04:40:08;7.40;;;5.10;;
15899;SDS011;8048;50.644;6.184;2024-02-21T04:42:34;7.70;;;4.70;;
15899;SDS011;8048;50.644;6.184;2024-02-21T04:45:00;7.17;;;5.10;;
15899;SDS011;8048;50.644;6.184;2024-02-21T04:47:25;7.13;;;3.73;;
15899;SDS011;8048;50.644;6.184;2024-02-21T04:49:52;4.60;;;3.83;;
15899;SDS011;8048;50.644;6.184;2024-02-21T04:52:17;4.60;;;4.30;;
15899;SDS011;8048;50.644;6.184;2024-02-21T04:54:43;4.17;;;3.87;;
15899;SDS011;8048;50.644;6.184;2024-02-21T04:57:09;10.60;;;4.20;;
15899;SDS011;8048;50.644;6.184;2024-02-21T04:59:35;10.70;;;4.90;;
15899;SDS011;8048;50.644;6.184;2024-02-21T05:02:01;5.87;;;3.90;;
15899;SDS011;8048;50.644;6.184;2024-02-21T05:04:27;5.30;;;3.97;;
15899;SDS011;8048;50.644;6.184;2024-02-21T05:06:52;4.53;;;4.13;;
15899;SDS011;8048;50.644;6.184;2024-02-21T05:09:18;5.40;;;3.57;;
15899;SDS011;8048;50.644;6.184;2024-02-21T05:11:43;8.23;;;3.93;;
15899;SDS011;8048;50.644;6.184;2024-02-21T05:14:09;7.93;;;4.90;;
15899;SDS011;8048;50.644;6.184;2024-02-21T05:16:35;8.47;;;5.13;;
15899;SDS011;8048;50.644;6.184;2024-02-21T05:19:00;11.63;;;5.40;;
15899;SDS011;8048;50.644;6.184;2024-02-21T05:21:26;9.17;;;5.07;;
15899;SDS011;8048;50.644;6.184;2024-02-21T05:23:53;9.13;;;4.03;;
15899;SDS011;8048;50.644;6.184;2024-02-21T05:26:25;9.90;;;5.10;;
15899;SDS011;8048;50.644;6.184;2024-02-21T05:28:51;8.93;;;4.20;;
15899;SDS011;8048;50.644;6.184;2024-02-21T05:31:17;7.07;;;3.90;;
15899;SDS011;8048;50.644;6.184;2024-02-21T05:33:44;6.23;;;5.13;;
15899;SDS011;8048;50.644;6.184;2024-02-21T05:36:10;6.60;;;5.07;;
15899;SDS011;8048;50.644;6.184;2024-02-21T05:38:36;6.17;;;4.30;;
15899;SDS011;8048;50.644;6.184;2024-02-21T05:41:02;4.83;;;4.20;;
15899;SDS011;8048;50.644;6.184;2024-02-21T05:43:28;6.43;;;5.07;;
15899;SDS011;8048;50.644;6.184;2024-02-21T05:45:53;4.30;;;3.90;;
15899;SDS011;8048;50.644;6.184;2024-02-21T05:48:19;8.40;;;5.43;;
15899;SDS011;8048;50.644;6.184;2024-02-21T05:50:45;6.23;;;4.93;;
15899;SDS011;8048;50.644;6.184;2024-02-21T05:53:11;8.87;;;5.40;;
15899;SDS011;8048;50.644;6.184;2024-02-21T05:55:37;13.97;;;6.27;;
15899;SDS011;8048;50.644;6.184;2024-02-21T05:58:03;7.70;;;5.13;;
15899;SDS011;8048;50.644;6.184;2024-02-21T06:00:29;6.97;;;5.57;;
15899;SDS011;8048;50.644;6.184;2024-02-21T06:02:54;14.03;;;5.70;;
15899;SDS011;8048;50.644;6.184;2024-02-21T06:05:20;12.17;;;6.43;;
15899;SDS011;8048;50.644;6.184;2024-02-21T06:07:46;10.13;;;5.30;;
15899;SDS011;8048;50.644;6.184;2024-02-21T06:10:11;8.93;;;5.53;;
15899;SDS011;8048;50.644;6.184;2024-02-21T06:12:37;13.63;;;6.23;;
15899;SDS011;8048;50.644;6.184;2024-02-21T06:15:03;8.87;;;6.60;;
15899;SDS011;8048;50.644;6.184;2024-02-21T06:17:29;9.83;;;6.20;;
15899;SDS011;8048;50.644;6.184;2024-02-21T06:19:54;10.73;;;5.37;;
15899;SDS011;8048;50.644;6.184;2024-02-21T06:22:20;16.50;;;6.17;;
15899;SDS011;8048;50.644;6.184;2024-02-21T06:24:45;6.90;;;5.80;;
15899;SDS011;8048;50.644;6.184;2024-02-21T06:27:11;6.87;;;4.97;;
15899;SDS011;8048;50.644;6.184;2024-02-21T06:29:37;6.80;;;5.00;;
15899;SDS011;8048;50.644;6.184;2024-02-21T06:32:03;8.53;;;6.17;;
15899;SDS011;8048;50.644;6.184;2024-02-21T06:34:29;7.10;;;5.07;;
15899;SDS011;8048;50.644;6.184;2024-02-21T06:36:54;6.60;;;4.77;;
15899;SDS011;8048;50.644;6.184;2024-02-21T06:39:20;8.13;;;5.37;;
15899;SDS011;8048;50.644;6.184;2024-02-21T06:41:48;6.07;;;4.40;;
15899;SDS011;8048;50.644;6.184;2024-02-21T06:44:15;5.40;;;4.07;;
15899;SDS011;8048;50.644;6.184;2024-02-21T06:46:41;8.77;;;5.17;;
15899;SDS011;8048;50.644;6.184;2024-02-21T06:49:07;5.73;;;5.20;;
15899;SDS011;8048;50.644;6.184;2024-02-21T06:51:32;6.10;;;4.63;;
15899;SDS011;8048;50.644;6.184;2024-02-21T06:53:59;6.00;;;4.10;;
15899;SDS011;8048;50.644;6.184;2024-02-21T06:56:25;9.30;;;5.00;;
15899;SDS011;8048;50.644;6.184;2024-02-21T06:58:54;4.73;;;3.77;;
15899;SDS011;8048;50.644;6.184;2024-02-21T07:01:20;4.77;;;3.40;;
15899;SDS011;8048;50.644;6.184;2024-02-21T07:03:45;7.37;;;4.20;;
15899;SDS011;8048;50.644;6.184;2024-02-21T07:06:11;6.27;;;4.27;;
15899;SDS011;8048;50.644;6.184;2024-02-21T07:08:37;4.27;;;3.70;;
15899;SDS011;8048;50.644;6.184;2024-02-21T07:11:03;6.73;;;4.73;;
15899;SDS011;8048;50.644;6.184;2024-02-21T07:13:29;6.33;;;4.33;;
15899;SDS011;8048;50.644;6.184;2024-02-21T07:15:55;5.23;;;3.77;;
15899;SDS011;8048;50.644;6.184;2024-02-21T07:18:21;4.73;;;4.00;;
15899;SDS011;8048;50.644;6.184;2024-02-21T07:20:46;7.17;;;6.50;;
15899;SDS011;8048;50.644;6.184;2024-02-21T07:23:12;11.87;;;5.80;;
15899;SDS011;8048;50.644;6.184;2024-02-21T07:25:38;7.70;;;4.40;;
15899;SDS011;8048;50.644;6.184;2024-02-21T07:28:04;7.53;;;3.97;;
15899;SDS011;8048;50.644;6.184;2024-02-21T07:30:30;6.57;;;4.03;;
15899;SDS011;8048;50.644;6.184;2024-02-21T07:32:56;4.30;;;3.90;;
15899;SDS011;8048;50.644;6.184;2024-02-21T07:35:21;7.50;;;4.90;;
15899;SDS011;8048;50.644;6.184;2024-02-21T07:37:47;4.70;;;3.63;;
15899;SDS011;8048;50.644;6.184;2024-02-21T07:40:16;5.50;;;4.23;;
15899;SDS011;8048;50.644;6.184;2024-02-21T07:42:42;5.60;;;4.83;;
15899;SDS011;8048;50.644;6.184;2024-02-21T07:45:08;4.30;;;3.27;;
15899;SDS011;8048;50.644;6.184;2024-02-21T07:47:35;9.77;;;4.60;;
15899;SDS011;8048;50.644;6.184;2024-02-21T07:50:01;7.03;;;6.30;;
15899;SDS011;8048;50.644;6.184;2024-02-21T07:52:30;4.33;;;3.93;;
15899;SDS011;8048;50.644;6.184;2024-02-21T07:54:55;9.13;;;4.70;;
15899;SDS011;8048;50.644;6.184;2024-02-21T07:57:21;9.47;;;4.80;;
15899;SDS011;8048;50.644;6.184;2024-02-21T07:59:47;6.03;;;3.70;;
15899;SDS011;8048;50.644;6.184;2024-02-21T08:02:13;5.27;;;3.73;;
15899;SDS011;8048;50.644;6.184;2024-02-21T08:04:39;6.97;;;4.03;;
15899;SDS011;8048;50.644;6.184;2024-02-21T08:07:05;4.13;;;3.60;;
15899;SDS011;8048;50.644;6.184;2024-02-21T08:09:30;6.87;;;4.03;;
15899;SDS011;8048;50.644;6.184;2024-02-21T08:11:56;6.67;;;4.33;;
15899;SDS011;8048;50.644;6.184;2024-02-21T08:14:22;4.70;;;4.20;;
15899;SDS011;8048;50.644;6.184;2024-02-21T08:16:49;7.40;;;3.53;;
15899;SDS011;8048;50.644;6.184;2024-02-21T08:19:15;4.57;;;4.00;;
15899;SDS011;8048;50.644;6.184;2024-02-21T08:21:42;8.10;;;5.13;;
15899;SDS011;8048;50.644;6.184;2024-02-21T08:24:07;6.47;;;3.50;;
15899;SDS011;8048;50.644;6.184;2024-02-21T08:26:33;4.80;;;4.40;;
15899;SDS011;8048;50.644;6.184;2024-02-21T08:28:59;7.00;;;4.70;;
15899;SDS011;8048;50.644;6.184;2024-02-21T08:31:25;11.57;;;5.87;;
15899;SDS011;8048;50.644;6.184;2024-02-21T08:33:59;4.77;;;4.00;;
15899;SDS011;8048;50.644;6.184;2024-02-21T08:36:35;5.17;;;3.70;;
15899;SDS011;8048;50.644;6.184;2024-02-21T08:39:01;6.70;;;4.60;;
15899;SDS011;8048;50.644;6.184;2024-02-21T08:41:29;4.93;;;4.27;;
15899;SDS011;8048;50.644;6.184;2024-02-21T08:43:59;6.60;;;3.90;;
15899;SDS011;8048;50.644;6.184;2024-02-21T08:46:25;5.57;;;4.03;;
15899;SDS011;8048;50.644;6.184;2024-02-21T08:48:51;8.83;;;4.13;;
15899;SDS011;8048;50.644;6.184;2024-02-21T08:51:17;7.10;;;3.80;;
15899;SDS011;8048;50.644;6.184;2024-02-21T08:53:43;8.90;;;4.13;;
15899;SDS011;8048;50.644;6.184;2024-02-21T08:56:10;7.07;;;3.57;;
15899;SDS011;8048;50.644;6.184;2024-02-21T08:58:35;3.77;;;3.27;;
15899;SDS011;8048;50.644;6.184;2024-02-21T09:01:04;7.40;;;4.17;;
15899;SDS011;8048;50.644;6.184;2024-02-21T09:03:32;5.70;;;4.60;;
15899;SDS011;8048;50.644;6.184;2024-02-21T09:05:58;3.70;;;3.40;;
15899;SDS011;8048;50.644;6.184;2024-02-21T09:08:24;4.87;;;4.20;;
15899;SDS011;8048;50.644;6.184;2024-02-21T09:10:50;4.20;;;3.90;;
15899;SDS011;8048;50.644;6.184;2024-02-21T09:13:15;7.33;;;3.50;;
15899;SDS011;8048;50.644;6.184;2024-02-21T09:15:42;7.47;;;3.90;;
15899;SDS011;8048;50.644;6.184;2024-02-21T09:18:07;8.73;;;4.40;;
15899;SDS011;8048;50.644;6.184;2024-02-21T09:20:33;3.20;;;2.90;;
15899;SDS011;8048;50.644;6.184;2024-02-21T09:22:59;5.20;;;3.07;;
15899;SDS011;8048;50.644;6.184;2024-02-21T09:25:24;5.07;;;4.43;;
15899;SDS011;8048;50.644;6.184;2024-02-21T09:27:50;6.53;;;4.10;;
15899;SDS011;8048;50.644;6.184;2024-02-21T09:30:17;6.00;;;4.57;;
15899;SDS011;8048;50.644;6.184;2024-02-21T09:32:44;6.47;;;3.90;;
15899;SDS011;8048;50.644;6.184;2024-02-21T09:35:09;5.93;;;3.67;;
15899;SDS011;8048;50.644;6.184;2024-02-21T09:37:35;3.90;;;3.50;;
15899;SDS011;8048;50.644;6.184;2024-02-21T09:40:01;9.03;;;4.27;;
15899;SDS011;8048;50.644;6.184;2024-02-21T09:42:45;7.50;;;4.17;;
15899;SDS011;8048;50.644;6.184;2024-02-21T09:50:59;4.80;;;4.00;;
15899;SDS011;8048;50.644;6.184;2024-02-21T09:53:27;7.03;;;3.63;;
15899;SDS011;8048;50.644;6.184;2024-02-21T09:55:54;4.93;;;3.73;;
15899;SDS011;8048;50.644;6.184;2024-02-21T09:58:21;4.20;;;3.33;;
15899;SDS011;8048;50.644;6.184;2024-02-21T10:00:49;4.83;;;3.70;;
15899;SDS011;8048;50.644;6.184;2024-02-21T10:03:14;5.70;;;3.90;;
15899;SDS011;8048;50.644;6.184;2024-02-21T10:05:45;4.33;;;2.83;;
15899;SDS011;8048;50.644;6.184;2024-02-21T10:08:16;5.10;;;4.60;;
15899;SDS011;8048;50.644;6.184;2024-02-21T10:10:43;5.27;;;3.83;;
15899;SDS011;8048;50.644;6.184;2024-02-21T10:13:09;7.00;;;5.10;;
15899;SDS011;8048;50.644;6.184;2024-02-21T10:15:35;8.33;;;4.30;;
15899;SDS011;8048;50.644;6.184;2024-02-21T10:18:01;5.90;;;4.77;;
15899;SDS011;8048;50.644;6.184;2024-02-21T10:20:28;5.03;;;4.03;;
15899;SDS011;8048;50.644;6.184;2024-02-21T10:23:01;4.47;;;3.50;;
15899;SDS011;8048;50.644;6.184;2024-02-21T10:25:37;5.03;;;3.83;;
15899;SDS011;8048;50.644;6.184;2024-02-21T10:28:13;8.63;;;4.60;;
15899;SDS011;8048;50.644;6.184;2024-02-21T10:30:49;3.50;;;3.30;;
15899;SDS011;8048;50.644;6.184;2024-02-21T10:33:16;8.60;;;4.30;;
15899;SDS011;8048;50.644;6.184;2024-02-21T10:35:45;4.07;;;3.73;;
15899;SDS011;8048;50.644;6.184;2024-02-21T10:38:12;4.40;;;4.00;;
15899;SDS011;8048;50.644;6.184;2024-02-21T10:40:37;9.50;;;3.80;;
15899;SDS011;8048;50.644;6.184;2024-02-21T10:43:03;4.90;;;3.50;;
15899;SDS011;8048;50.644;6.184;2024-02-21T10:45:35;7.63;;;4.50;;
15899;SDS011;8048;50.644;6.184;2024-02-21T10:48:10;8.73;;;6.03;;
15899;SDS011;8048;50.644;6.184;2024-02-21T10:50:55;10.00;;;5.00;;
15899;SDS011;8048;50.644;6.184;2024-02-21T10:56:11;5.67;;;4.13;;
15899;SDS011;8048;50.644;6.184;2024-02-21T10:58:41;9.00;;;5.03;;
15899;SDS011;8048;50.644;6.184;2024-02-21T11:01:09;6.67;;;4.57;;
15899;SDS011;8048;50.644;6.184;2024-02-21T11:03:35;4.87;;;4.03;;
15899;SDS011;8048;50.644;6.184;2024-02-21T11:06:02;5.57;;;4.77;;
15899;SDS011;8048;50.644;6.184;2024-02-21T11:08:30;5.40;;;4.03;;
15899;SDS011;8048;50.644;6.184;2024-02-21T11:10:58;8.27;;;4.50;;
15899;SDS011;8048;50.644;6.184;2024-02-21T11:13:31;5.10;;;4.60;;
15899;SDS011;8048;50.644;6.184;2024-02-21T11:16:34;5.77;;;4.20;;
15899;SDS011;8048;50.644;6.184;2024-02-21T11:18:52;8.47;;;5.60;;
15899;SDS011;8048;50.644;6.184;2024-02-21T11:21:35;8.20;;;4.70;;
15899;SDS011;8048;50.644;6.184;2024-02-21T11:24:01;8.83;;;4.77;;
15899;SDS011;8048;50.644;6.184;2024-02-21T11:26:28;7.90;;;4.40;;
15899;SDS011;8048;50.644;6.184;2024-02-21T11:31:24;7.87;;;4.80;;
15899;SDS011;8048;50.644;6.184;2024-02-21T11:33:52;6.33;;;4.50;;
15899;SDS011;8048;50.644;6.184;2024-02-21T11:36:25;6.37;;;4.50;;
15899;SDS011;8048;50.644;6.184;2024-02-21T11:38:51;5.13;;;4.50;;
15899;SDS011;8048;50.644;6.184;2024-02-21T11:41:18;6.33;;;4.47;;
15899;SDS011;8048;50.644;6.184;2024-02-21T11:43:45;4.70;;;4.20;;
15899;SDS011;8048;50.644;6.184;2024-02-21T11:46:13;7.33;;;4.47;;
15899;SDS011;8048;50.644;6.184;2024-02-21T11:48:39;7.17;;;5.30;;
15899;SDS011;8048;50.644;6.184;2024-02-21T11:51:06;7.03;;;3.80;;
15899;SDS011;8048;50.644;6.184;2024-02-21T11:53:31;7.83;;;4.30;;
15899;SDS011;8048;50.644;6.184;2024-02-21T11:55:58;7.90;;;4.17;;
15899;SDS011;8048;50.644;6.184;2024-02-21T11:58:24;4.47;;;3.83;;
15899;SDS011;8048;50.644;6.184;2024-02-21T12:00:50;5.47;;;3.70;;
15899;SDS011;8048;50.644;6.184;2024-02-21T12:03:16;9.43;;;4.90;;
15899;SDS011;8048;50.644;6.184;2024-02-21T12:05:42;7.43;;;4.50;;
15899;SDS011;8048;50.644;6.184;2024-02-21T12:08:08;4.73;;;3.00;;
15899;SDS011;8048;50.644;6.184;2024-02-21T12:10:34;7.10;;;3.50;;
15899;SDS011;8048;50.644;6.184;2024-02-21T12:13:07;3.50;;;3.07;;
15899;SDS011;8048;50.644;6.184;2024-02-21T12:15:33;6.60;;;4.87;;
15899;SDS011;8048;50.644;6.184;2024-02-21T12:17:59;7.87;;;4.03;;
15899;SDS011;8048;50.644;6.184;2024-02-21T12:20:25;5.70;;;4.03;;
15899;SDS011;8048;50.644;6.184;2024-02-21T12:22:52;6.63;;;3.80;;
15899;SDS011;8048;50.644;6.184;2024-02-21T12:25:19;3.37;;;3.17;;
15899;SDS011;8048;50.644;6.184;2024-02-21T12:27:51;7.33;;;3.53;;
15899;SDS011;8048;50.644;6.184;2024-02-21T12:30:17;4.43;;;3.27;;
15899;SDS011;8048;50.644;6.184;2024-02-21T12:32:44;4.93;;;3.20;;
15899;SDS011;8048;50.644;6.184;2024-02-21T12:35:10;5.57;;;3.30;;
15899;SDS011;8048;50.644;6.184;2024-02-21T12:37:36;5.40;;;3.90;;
15899;SDS011;8048;50.644;6.184;2024-02-21T12:40:03;4.93;;;3.73;;
15899;SDS011;8048;50.644;6.184;2024-02-21T12:42:33;4.33;;;3.70;;
15899;SDS011;8048;50.644;6.184;2024-02-21T12:44:59;3.77;;;3.30;;
15899;SDS011;8048;50.644;6.184;2024-02-21T12:47:24;6.57;;;3.43;;
15899;SDS011;8048;50.644;6.184;2024-02-21T12:49:51;4.60;;;4.20;;
15899;SDS011;8048;50.644;6.184;2024-02-21T12:52:17;3.57;;;2.90;;
15899;SDS011;8048;50.644;6.184;2024-02-21T12:54:43;8.27;;;4.47;;
15899;SDS011;8048;50.644;6.184;2024-02-21T12:57:09;3.20;;;2.80;;
15899;SDS011;8048;50.644;6.184;2024-02-21T12:59:35;5.43;;;2.90;;
15899;SDS011;8048;50.644;6.184;2024-02-21T13:02:00;3.53;;;3.30;;
15899;SDS011;8048;50.644;6.184;2024-02-21T13:04:26;3.03;;;2.70;;
15899;SDS011;8048;50.644;6.184;2024-02-21T13:06:52;5.07;;;3.07;;
15899;SDS011;8048;50.644;6.184;2024-02-21T13:09:17;3.80;;;2.73;;
15899;SDS011;8048;50.644;6.184;2024-02-21T13:11:43;4.10;;;2.87;;
15899;SDS011;8048;50.644;6.184;2024-02-21T13:14:11;5.20;;;3.13;;
15899;SDS011;8048;50.644;6.184;2024-02-21T13:16:37;2.77;;;2.57;;
15899;SDS011;8048;50.644;6.184;2024-02-21T13:19:07;6.77;;;4.00;;
15899;SDS011;8048;50.644;6.184;2024-02-21T13:21:33;4.27;;;3.17;;
15899;SDS011;8048;50.644;6.184;2024-02-21T13:24:00;3.90;;;3.60;;
15899;SDS011;8048;50.644;6.184;2024-02-21T13:26:25;2.93;;;2.67;;
15899;SDS011;8048;50.644;6.184;2024-02-21T13:28:51;6.67;;;2.70;;
15899;SDS011;8048;50.644;6.184;2024-02-21T13:31:17;8.27;;;2.70;;
15899;SDS011;8048;50.644;6.184;2024-02-21T13:33:43;3.53;;;3.00;;
15899;SDS011;8048;50.644;6.184;2024-02-21T13:36:12;4.30;;;2.33;;
15899;SDS011;8048;50.644;6.184;2024-02-21T13:38:38;4.43;;;3.97;;
15899;SDS011;8048;50.644;6.184;2024-02-21T13:41:04;3.57;;;2.83;;
15899;SDS011;8048;50.644;6.184;2024-02-21T13:43:31;3.23;;;2.93;;
15899;SDS011;8048;50.644;6.184;2024-02-21T13:45:57;2.30;;;2.10;;
15899;SDS011;8048;50.644;6.184;2024-02-21T13:48:24;5.90;;;2.93;;
15899;SDS011;8048;50.644;6.184;2024-02-21T13:50:50;6.77;;;3.57;;
15899;SDS011;8048;50.644;6.184;2024-02-21T13:53:15;2.83;;;2.63;;
15899;SDS011;8048;50.644;6.184;2024-02-21T13:55:43;2.70;;;2.30;;
15899;SDS011;8048;50.644;6.184;2024-02-21T13:58:09;3.43;;;2.87;;
15899;SDS011;8048;50.644;6.184;2024-02-21T14:00:35;2.00;;;1.77;;
15899;SDS011;8048;50.644;6.184;2024-02-21T14:03:01;6.20;;;2.40;;
15899;SDS011;8048;50.644;6.184;2024-02-21T14:05:26;3.83;;;3.07;;
15899;SDS011;8048;50.644;6.184;2024-02-21T14:07:52;2.77;;;2.50;;
15899;SDS011;8048;50.644;6.184;2024-02-21T14:10:19;4.43;;;2.40;;
15899;SDS011;8048;50.644;6.184;2024-02-21T14:12:45;2.20;;;1.93;;
15899;SDS011;8048;50.644;6.184;2024-02-21T14:15:12;3.37;;;2.50;;
15899;SDS011;8048;50.644;6.184;2024-02-21T14:17:38;2.73;;;1.93;;
15899;SDS011;8048;50.644;6.184;2024-02-21T14:20:04;3.13;;;2.60;;
15899;SDS011;8048;50.644;6.184;2024-02-21T14:22:31;4.63;;;2.40;;
15899;SDS011;8048;50.644;6.184;2024-02-21T14:24:58;2.63;;;2.17;;
15899;SDS011;8048;50.644;6.184;2024-02-21T14:27:23;4.77;;;1.93;;
15899;SDS011;8048;50.644;6.184;2024-02-21T14:29:49;6.20;;;2.37;;
15899;SDS011;8048;50.644;6.184;2024-02-21T14:32:14;3.47;;;2.70;;
15899;SDS011;8048;50.644;6.184;2024-02-21T14:34:40;2.90;;;2.60;;
15899;SDS011;8048;50.644;6.184;2024-02-21T14:37:06;4.00;;;2.43;;
15899;SDS011;8048;50.644;6.184;2024-02-21T14:39:32;7.23;;;2.40;;
15899;SDS011;8048;50.644;6.184;2024-02-21T14:41:59;2.63;;;2.40;;
15899;SDS011;8048;50.644;6.184;2024-02-21T14:44:25;2.63;;;2.13;;
15899;SDS011;8048;50.644;6.184;2024-02-21T14:46:51;3.37;;;2.60;;
15899;SDS011;8048;50.644;6.184;2024-02-21T14:49:16;6.03;;;2.10;;
15899;SDS011;8048;50.644;6.184;2024-02-21T14:51:44;2.50;;;2.23;;
15899;SDS011;8048;50.644;6.184;2024-02-21T14:54:09;3.13;;;2.83;;
15899;SDS011;8048;50.644;6.184;2024-02-21T14:56:35;4.03;;;2.50;;
15899;SDS011;8048;50.644;6.184;2024-02-21T14:59:01;2.73;;;2.53;;
15899;SDS011;8048;50.644;6.184;2024-02-21T15:01:27;2.13;;;2.03;;
15899;SDS011;8048;50.644;6.184;2024-02-21T15:03:52;2.83;;;2.40;;
15899;SDS011;8048;50.644;6.184;2024-02-21T15:06:18;4.50;;;2.10;;